sensor_id;sensor_type;location;lat;lon;timestamp;pressure;altitude;pressure_sealevel;temperature;humidity
61436;BME280;47304;47.456;19.160;2023-07-29T00:02:25;99798.27;;;22.05;64.37
61436;BME280;47304;47.456;19.160;2023-07-29T00:04:51;99797.45;;;22.01;64.38
61436;BME280;47304;47.456;19.160;2023-07-29T00:07:18;99802.84;;;21.97;64.80
61436;BME280;47304;47.456;19.160;2023-07-29T00:09:44;99803.98;;;21.92;64.78
61436;BME280;47304;47.456;19.160;2023-07-29T00:12:11;99805.05;;;21.89;64.94
61436;BME280;47304;47.456;19.160;2023-07-29T00:14:37;99801.99;;;21.87;65.10
61436;BME280;47304;47.456;19.160;2023-07-29T00:17:04;99801.09;;;21.84;65.07
61436;BME280;47304;47.456;19.160;2023-07-29T00:19:30;99800.39;;;21.80;65.23
61436;BME280;47304;47.456;19.160;2023-07-29T00:21:57;99803.41;;;21.77;65.42
61436;BME280;47304;47.456;19.160;2023-07-29T00:24:23;99801.77;;;21.75;65.55
61436;BME280;47304;47.456;19.160;2023-07-29T00:26:50;99801.06;;;21.72;65.68
61436;BME280;47304;47.456;19.160;2023-07-29T00:29:16;99798.80;;;21.67;65.78
61436;BME280;47304;47.456;19.160;2023-07-29T00:31:43;99794.67;;;21.64;65.71
61436;BME280;47304;47.456;19.160;2023-07-29T00:34:10;99796.58;;;21.62;66.07
61436;BME280;47304;47.456;19.160;2023-07-29T00:36:36;99794.98;;;21.58;66.04
61436;BME280;47304;47.456;19.160;2023-07-29T00:39:03;99794.36;;;21.50;66.19
61436;BME280;47304;47.456;19.160;2023-07-29T00:41:30;99793.39;;;21.45;66.70
61436;BME280;47304;47.456;19.160;2023-07-29T00:43:56;99794.02;;;21.43;66.62
61436;BME280;47304;47.456;19.160;2023-07-29T00:46:23;99793.49;;;21.36;66.83
61436;BME280;47304;47.456;19.160;2023-07-29T00:48:50;99790.52;;;21.35;66.82
61436;BME280;47304;47.456;19.160;2023-07-29T00:51:17;99791.76;;;21.32;66.77
61436;BME280;47304;47.456;19.160;2023-07-29T00:53:44;99794.56;;;21.29;66.93
61436;BME280;47304;47.456;19.160;2023-07-29T00:56:10;99791.90;;;21.26;67.08
61436;BME280;47304;47.456;19.160;2023-07-29T00:58:37;99792.76;;;21.24;67.24
61436;BME280;47304;47.456;19.160;2023-07-29T01:01:04;99793.66;;;21.20;67.33
61436;BME280;47304;47.456;19.160;2023-07-29T01:03:31;99790.66;;;21.16;67.41
61436;BME280;47304;47.456;19.160;2023-07-29T01:06:12;99789.65;;;21.12;67.54
61436;BME280;47304;47.456;19.160;2023-07-29T01:08:46;99789.70;;;21.07;67.50
61436;BME280;47304;47.456;19.160;2023-07-29T01:17:33;99788.09;;;20.91;68.14
61436;BME280;47304;47.456;19.160;2023-07-29T01:22:32;99782.41;;;20.80;68.51
61436;BME280;47304;47.456;19.160;2023-07-29T01:25:00;99779.30;;;20.75;68.54
61436;BME280;47304;47.456;19.160;2023-07-29T01:27:26;99779.15;;;20.70;68.71
61436;BME280;47304;47.456;19.160;2023-07-29T01:29:54;99777.95;;;20.66;68.66
61436;BME280;47304;47.456;19.160;2023-07-29T01:38:26;99786.64;;;20.52;69.24
61436;BME280;47304;47.456;19.160;2023-07-29T01:40:54;99787.81;;;20.47;69.32
61436;BME280;47304;47.456;19.160;2023-07-29T01:43:22;99780.18;;;20.43;69.33
61436;BME280;47304;47.456;19.160;2023-07-29T01:45:49;99778.23;;;20.39;69.33
61436;BME280;47304;47.456;19.160;2023-07-29T01:48:16;99777.70;;;20.35;69.23
61436;BME280;47304;47.456;19.160;2023-07-29T01:50:43;99784.73;;;20.34;69.36
61436;BME280;47304;47.456;19.160;2023-07-29T01:53:09;99782.54;;;20.32;69.44
61436;BME280;47304;47.456;19.160;2023-07-29T01:55:36;99783.60;;;20.28;69.80
61436;BME280;47304;47.456;19.160;2023-07-29T01:58:02;99781.23;;;20.25;69.96
61436;BME280;47304;47.456;19.160;2023-07-29T02:00:29;99780.88;;;20.22;69.69
61436;BME280;47304;47.456;19.160;2023-07-29T02:02:55;99779.98;;;20.18;69.78
61436;BME280;47304;47.456;19.160;2023-07-29T02:05:22;99780.20;;;20.14;70.07
61436;BME280;47304;47.456;19.160;2023-07-29T02:07:48;99782.81;;;20.12;70.22
61436;BME280;47304;47.456;19.160;2023-07-29T02:10:15;99787.23;;;20.08;70.32
61436;BME280;47304;47.456;19.160;2023-07-29T02:12:41;99792.04;;;20.05;70.24
61436;BME280;47304;47.456;19.160;2023-07-29T02:15:08;99792.52;;;19.98;70.20
61436;BME280;47304;47.456;19.160;2023-07-29T02:17:35;99791.71;;;19.93;70.50
61436;BME280;47304;47.456;19.160;2023-07-29T02:20:03;99785.08;;;19.90;70.76
61436;BME280;47304;47.456;19.160;2023-07-29T02:22:29;99786.27;;;19.88;70.81
61436;BME280;47304;47.456;19.160;2023-07-29T02:24:56;99787.83;;;19.85;70.73
61436;BME280;47304;47.456;19.160;2023-07-29T02:27:22;99787.42;;;19.82;70.66
61436;BME280;47304;47.456;19.160;2023-07-29T02:29:49;99787.77;;;19.78;70.87
61436;BME280;47304;47.456;19.160;2023-07-29T02:32:16;99790.48;;;19.73;70.91
61436;BME280;47304;47.456;19.160;2023-07-29T02:34:42;99792.98;;;19.69;71.23
61436;BME280;47304;47.456;19.160;2023-07-29T02:37:09;99795.84;;;19.65;71.17
61436;BME280;47304;47.456;19.160;2023-07-29T02:39:36;99793.34;;;19.62;71.33
61436;BME280;47304;47.456;19.160;2023-07-29T02:42:03;99792.92;;;19.59;71.58
61436;BME280;47304;47.456;19.160;2023-07-29T02:44:30;99792.48;;;19.57;71.49
61436;BME280;47304;47.456;19.160;2023-07-29T02:46:56;99789.23;;;19.55;71.69
61436;BME280;47304;47.456;19.160;2023-07-29T02:49:23;99785.22;;;19.53;71.88
61436;BME280;47304;47.456;19.160;2023-07-29T02:51:50;99786.73;;;19.51;71.80
61436;BME280;47304;47.456;19.160;2023-07-29T02:54:16;99793.90;;;19.49;71.94
61436;BME280;47304;47.456;19.160;2023-07-29T02:56:43;99794.36;;;19.47;72.20
61436;BME280;47304;47.456;19.160;2023-07-29T02:59:09;99795.07;;;19.43;72.17
61436;BME280;47304;47.456;19.160;2023-07-29T03:01:36;99799.79;;;19.41;72.32
61436;BME280;47304;47.456;19.160;2023-07-29T03:04:02;99800.62;;;19.39;72.37
61436;BME280;47304;47.456;19.160;2023-07-29T03:06:29;99798.55;;;19.37;72.34
61436;BME280;47304;47.456;19.160;2023-07-29T03:08:56;99797.95;;;19.35;72.31
61436;BME280;47304;47.456;19.160;2023-07-29T03:11:22;99800.48;;;19.34;72.49
61436;BME280;47304;47.456;19.160;2023-07-29T03:13:49;99804.86;;;19.31;72.53
61436;BME280;47304;47.456;19.160;2023-07-29T03:16:17;99800.83;;;19.30;72.56
61436;BME280;47304;47.456;19.160;2023-07-29T03:18:44;99801.95;;;19.29;72.64
61436;BME280;47304;47.456;19.160;2023-07-29T03:21:11;99803.85;;;19.26;72.57
61436;BME280;47304;47.456;19.160;2023-07-29T03:23:38;99805.36;;;19.24;72.70
61436;BME280;47304;47.456;19.160;2023-07-29T03:26:04;99802.44;;;19.22;72.80
61436;BME280;47304;47.456;19.160;2023-07-29T03:28:32;99800.73;;;19.21;72.95
61436;BME280;47304;47.456;19.160;2023-07-29T03:30:59;99801.20;;;19.17;72.99
61436;BME280;47304;47.456;19.160;2023-07-29T03:33:26;99803.96;;;19.16;73.00
61436;BME280;47304;47.456;19.160;2023-07-29T03:35:53;99802.24;;;19.14;73.13
61436;BME280;47304;47.456;19.160;2023-07-29T03:38:19;99803.71;;;19.13;73.08
61436;BME280;47304;47.456;19.160;2023-07-29T03:40:46;99795.87;;;19.11;73.09
61436;BME280;47304;47.456;19.160;2023-07-29T03:43:13;99797.48;;;19.10;73.16
61436;BME280;47304;47.456;19.160;2023-07-29T03:45:40;99800.86;;;19.10;73.15
61436;BME280;47304;47.456;19.160;2023-07-29T03:48:07;99801.07;;;19.09;73.31
61436;BME280;47304;47.456;19.160;2023-07-29T03:50:36;99802.11;;;19.09;73.44
61436;BME280;47304;47.456;19.160;2023-07-29T03:53:03;99802.07;;;19.10;73.48
61436;BME280;47304;47.456;19.160;2023-07-29T03:55:31;99801.02;;;19.10;73.45
61436;BME280;47304;47.456;19.160;2023-07-29T03:57:58;99803.11;;;19.11;73.55
61436;BME280;47304;47.456;19.160;2023-07-29T04:00:26;99800.79;;;19.11;73.51
61436;BME280;47304;47.456;19.160;2023-07-29T04:02:53;99803.23;;;19.12;73.57
61436;BME280;47304;47.456;19.160;2023-07-29T04:05:20;99808.52;;;19.13;73.68
61436;BME280;47304;47.456;19.160;2023-07-29T04:07:46;99813.57;;;19.15;73.78
61436;BME280;47304;47.456;19.160;2023-07-29T04:10:13;99816.70;;;19.17;73.72
61436;BME280;47304;47.456;19.160;2023-07-29T04:12:40;99819.10;;;19.19;73.84
61436;BME280;47304;47.456;19.160;2023-07-29T04:15:07;99826.23;;;19.22;74.05
61436;BME280;47304;47.456;19.160;2023-07-29T04:17:34;99826.46;;;19.24;73.94
61436;BME280;47304;47.456;19.160;2023-07-29T04:20:01;99826.89;;;19.27;74.24
61436;BME280;47304;47.456;19.160;2023-07-29T04:22:28;99821.92;;;19.31;74.26
61436;BME280;47304;47.456;19.160;2023-07-29T04:24:54;99817.31;;;19.35;74.21
61436;BME280;47304;47.456;19.160;2023-07-29T04:27:21;99815.64;;;19.40;74.30
61436;BME280;47304;47.456;19.160;2023-07-29T04:29:47;99813.44;;;19.45;74.40
61436;BME280;47304;47.456;19.160;2023-07-29T04:32:14;99808.42;;;19.50;74.35
61436;BME280;47304;47.456;19.160;2023-07-29T04:34:40;99804.13;;;19.55;74.50
61436;BME280;47304;47.456;19.160;2023-07-29T04:37:07;99804.54;;;19.62;74.45
61436;BME280;47304;47.456;19.160;2023-07-29T04:39:33;99806.04;;;19.68;74.62
61436;BME280;47304;47.456;19.160;2023-07-29T04:42:00;99812.34;;;19.73;74.46
61436;BME280;47304;47.456;19.160;2023-07-29T04:44:26;99817.88;;;19.80;74.07
61436;BME280;47304;47.456;19.160;2023-07-29T04:46:53;99813.98;;;19.88;73.90
61436;BME280;47304;47.456;19.160;2023-07-29T04:49:19;99812.70;;;19.96;74.02
61436;BME280;47304;47.456;19.160;2023-07-29T04:51:46;99815.67;;;20.04;73.73
61436;BME280;47304;47.456;19.160;2023-07-29T04:54:12;99817.85;;;20.11;73.49
61436;BME280;47304;47.456;19.160;2023-07-29T04:56:39;99816.83;;;20.18;73.39
61436;BME280;47304;47.456;19.160;2023-07-29T04:59:05;99818.73;;;20.26;73.14
61436;BME280;47304;47.456;19.160;2023-07-29T05:01:32;99821.00;;;20.34;72.98
61436;BME280;47304;47.456;19.160;2023-07-29T05:03:59;99819.72;;;20.42;72.87
61436;BME280;47304;47.456;19.160;2023-07-29T05:06:25;99823.44;;;20.50;72.65
61436;BME280;47304;47.456;19.160;2023-07-29T05:08:52;99827.13;;;20.58;72.46
61436;BME280;47304;47.456;19.160;2023-07-29T05:11:18;99822.48;;;20.65;72.27
61436;BME280;47304;47.456;19.160;2023-07-29T05:13:45;99828.07;;;20.75;71.97
61436;BME280;47304;47.456;19.160;2023-07-29T05:16:11;99825.90;;;20.86;71.79
61436;BME280;47304;47.456;19.160;2023-07-29T05:18:38;99824.92;;;20.98;71.61
61436;BME280;47304;47.456;19.160;2023-07-29T05:21:04;99824.98;;;21.07;71.20
61436;BME280;47304;47.456;19.160;2023-07-29T05:23:31;99826.86;;;21.19;71.12
61436;BME280;47304;47.456;19.160;2023-07-29T05:25:58;99824.23;;;21.28;70.94
61436;BME280;47304;47.456;19.160;2023-07-29T05:28:24;99823.00;;;21.38;70.48
61436;BME280;47304;47.456;19.160;2023-07-29T05:30:52;99827.84;;;21.47;70.12
61436;BME280;47304;47.456;19.160;2023-07-29T05:33:18;99825.45;;;21.55;69.66
61436;BME280;47304;47.456;19.160;2023-07-29T05:35:45;99827.05;;;21.62;69.33
61436;BME280;47304;47.456;19.160;2023-07-29T05:38:11;99830.45;;;21.72;68.97
61436;BME280;47304;47.456;19.160;2023-07-29T05:40:38;99831.73;;;21.81;68.70
61436;BME280;47304;47.456;19.160;2023-07-29T05:43:04;99840.02;;;21.89;68.54
61436;BME280;47304;47.456;19.160;2023-07-29T05:45:31;99849.20;;;21.97;67.84
61436;BME280;47304;47.456;19.160;2023-07-29T05:47:58;99856.53;;;22.03;67.27
61436;BME280;47304;47.456;19.160;2023-07-29T05:50:24;99852.90;;;22.07;67.10
61436;BME280;47304;47.456;19.160;2023-07-29T05:52:51;99851.03;;;22.12;67.20
61436;BME280;47304;47.456;19.160;2023-07-29T05:55:17;99851.59;;;22.18;67.02
61436;BME280;47304;47.456;19.160;2023-07-29T05:57:44;99855.39;;;22.26;67.07
61436;BME280;47304;47.456;19.160;2023-07-29T06:00:11;99856.81;;;22.36;66.83
61436;BME280;47304;47.456;19.160;2023-07-29T06:02:37;99862.16;;;22.46;66.50
61436;BME280;47304;47.456;19.160;2023-07-29T06:05:04;99864.45;;;22.56;66.15
61436;BME280;47304;47.456;19.160;2023-07-29T06:07:31;99862.74;;;22.64;65.30
61436;BME280;47304;47.456;19.160;2023-07-29T06:09:57;99869.63;;;22.68;64.52
61436;BME280;47304;47.456;19.160;2023-07-29T06:12:24;99867.52;;;22.67;64.39
61436;BME280;47304;47.456;19.160;2023-07-29T06:14:50;99873.43;;;22.73;64.17
61436;BME280;47304;47.456;19.160;2023-07-29T06:17:17;99877.02;;;22.79;63.38
61436;BME280;47304;47.456;19.160;2023-07-29T06:19:43;99877.51;;;22.86;63.06
61436;BME280;47304;47.456;19.160;2023-07-29T06:22:10;99882.11;;;22.93;62.79
61436;BME280;47304;47.456;19.160;2023-07-29T06:24:36;99886.70;;;22.99;62.24
61436;BME280;47304;47.456;19.160;2023-07-29T06:27:03;99887.21;;;23.06;62.12
61436;BME280;47304;47.456;19.160;2023-07-29T06:29:30;99884.91;;;23.11;61.91
61436;BME280;47304;47.456;19.160;2023-07-29T06:31:58;99886.96;;;23.16;61.74
61436;BME280;47304;47.456;19.160;2023-07-29T06:34:24;99889.25;;;23.20;61.44
61436;BME280;47304;47.456;19.160;2023-07-29T06:36:52;99879.57;;;23.24;61.23
61436;BME280;47304;47.456;19.160;2023-07-29T06:39:18;99876.81;;;23.31;61.11
61436;BME280;47304;47.456;19.160;2023-07-29T06:41:45;99882.29;;;23.41;60.47
61436;BME280;47304;47.456;19.160;2023-07-29T06:44:12;99885.00;;;23.52;60.23
61436;BME280;47304;47.456;19.160;2023-07-29T06:46:39;99881.23;;;23.63;60.22
61436;BME280;47304;47.456;19.160;2023-07-29T06:49:06;99879.95;;;23.75;59.77
61436;BME280;47304;47.456;19.160;2023-07-29T06:51:32;99882.54;;;23.86;59.02
61436;BME280;47304;47.456;19.160;2023-07-29T06:53:59;99883.11;;;23.94;58.48
61436;BME280;47304;47.456;19.160;2023-07-29T06:56:26;99887.86;;;24.03;58.41
61436;BME280;47304;47.456;19.160;2023-07-29T06:58:52;99889.70;;;24.14;57.65
61436;BME280;47304;47.456;19.160;2023-07-29T07:01:19;99888.06;;;24.23;57.41
61436;BME280;47304;47.456;19.160;2023-07-29T07:03:45;99882.56;;;24.33;57.39
61436;BME280;47304;47.456;19.160;2023-07-29T07:06:12;99877.81;;;24.45;57.56
61436;BME280;47304;47.456;19.160;2023-07-29T07:08:38;99882.41;;;24.57;57.01
61436;BME280;47304;47.456;19.160;2023-07-29T07:11:05;99875.24;;;24.68;56.61
61436;BME280;47304;47.456;19.160;2023-07-29T07:13:31;99873.44;;;24.79;56.07
61436;BME280;47304;47.456;19.160;2023-07-29T07:15:58;99874.69;;;24.90;56.03
61436;BME280;47304;47.456;19.160;2023-07-29T07:18:24;99877.55;;;25.03;56.14
61436;BME280;47304;47.456;19.160;2023-07-29T07:20:51;99878.52;;;25.16;55.34
61436;BME280;47304;47.456;19.160;2023-07-29T07:23:18;99874.70;;;25.27;54.98
61436;BME280;47304;47.456;19.160;2023-07-29T07:25:45;99872.73;;;25.34;54.48
61436;BME280;47304;47.456;19.160;2023-07-29T07:28:11;99871.87;;;25.45;54.30
61436;BME280;47304;47.456;19.160;2023-07-29T07:30:41;99875.05;;;25.53;54.06
61436;BME280;47304;47.456;19.160;2023-07-29T07:33:08;99872.73;;;25.60;53.77
61436;BME280;47304;47.456;19.160;2023-07-29T07:35:35;99873.30;;;25.70;53.68
61436;BME280;47304;47.456;19.160;2023-07-29T07:38:02;99868.52;;;25.79;53.39
61436;BME280;47304;47.456;19.160;2023-07-29T07:40:32;99867.09;;;25.86;53.14
61436;BME280;47304;47.456;19.160;2023-07-29T07:42:59;99867.83;;;25.91;52.71
61436;BME280;47304;47.456;19.160;2023-07-29T07:45:25;99867.23;;;25.97;52.06
61436;BME280;47304;47.456;19.160;2023-07-29T07:47:53;99862.09;;;26.01;51.65
61436;BME280;47304;47.456;19.160;2023-07-29T07:50:19;99865.98;;;26.09;51.58
61436;BME280;47304;47.456;19.160;2023-07-29T07:52:47;99862.65;;;26.18;51.96
61436;BME280;47304;47.456;19.160;2023-07-29T07:55:13;99858.92;;;26.27;51.86
61436;BME280;47304;47.456;19.160;2023-07-29T07:57:41;99859.80;;;26.35;51.68
61436;BME280;47304;47.456;19.160;2023-07-29T08:00:07;99861.69;;;26.46;51.50
61436;BME280;47304;47.456;19.160;2023-07-29T08:02:34;99857.38;;;26.56;51.15
61436;BME280;47304;47.456;19.160;2023-07-29T08:05:01;99848.45;;;26.65;50.85
61436;BME280;47304;47.456;19.160;2023-07-29T08:07:27;99850.30;;;26.76;50.59
61436;BME280;47304;47.456;19.160;2023-07-29T08:09:54;99847.48;;;26.87;50.63
61436;BME280;47304;47.456;19.160;2023-07-29T08:12:20;99846.27;;;26.93;49.91
61436;BME280;47304;47.456;19.160;2023-07-29T08:14:47;99840.54;;;26.96;49.48
61436;BME280;47304;47.456;19.160;2023-07-29T08:17:13;99837.98;;;26.99;49.46
61436;BME280;47304;47.456;19.160;2023-07-29T08:19:40;99842.95;;;27.00;48.97
61436;BME280;47304;47.456;19.160;2023-07-29T08:22:10;99842.13;;;27.01;48.81
61436;BME280;47304;47.456;19.160;2023-07-29T08:24:40;99841.86;;;27.02;48.96
61436;BME280;47304;47.456;19.160;2023-07-29T08:27:14;99843.13;;;27.06;48.97
61436;BME280;47304;47.456;19.160;2023-07-29T08:29:40;99840.66;;;27.13;48.77
61436;BME280;47304;47.456;19.160;2023-07-29T08:32:07;99843.68;;;27.20;48.73
61436;BME280;47304;47.456;19.160;2023-07-29T08:34:33;99841.83;;;27.25;48.37
61436;BME280;47304;47.456;19.160;2023-07-29T08:37:01;99836.29;;;27.28;47.77
61436;BME280;47304;47.456;19.160;2023-07-29T08:39:28;99829.77;;;27.33;48.31
61436;BME280;47304;47.456;19.160;2023-07-29T08:42:02;99828.77;;;27.41;48.25
61436;BME280;47304;47.456;19.160;2023-07-29T08:44:33;99830.67;;;27.48;47.44
61436;BME280;47304;47.456;19.160;2023-07-29T08:47:00;99832.22;;;27.56;47.09
61436;BME280;47304;47.456;19.160;2023-07-29T08:49:27;99830.81;;;27.65;47.21
61436;BME280;47304;47.456;19.160;2023-07-29T08:51:55;99829.98;;;27.73;46.52
61436;BME280;47304;47.456;19.160;2023-07-29T08:54:24;99835.73;;;27.80;45.81
61436;BME280;47304;47.456;19.160;2023-07-29T08:56:50;99830.83;;;27.87;45.82
61436;BME280;47304;47.456;19.160;2023-07-29T08:59:17;99828.95;;;27.95;45.95
61436;BME280;47304;47.456;19.160;2023-07-29T09:01:46;99831.24;;;28.02;45.87
61436;BME280;47304;47.456;19.160;2023-07-29T09:04:13;99829.17;;;28.10;45.69
61436;BME280;47304;47.456;19.160;2023-07-29T09:06:43;99827.92;;;28.16;45.05
61436;BME280;47304;47.456;19.160;2023-07-29T09:09:10;99825.23;;;28.25;44.54
61436;BME280;47304;47.456;19.160;2023-07-29T09:11:37;99824.45;;;28.32;44.27
61436;BME280;47304;47.456;19.160;2023-07-29T09:14:03;99826.95;;;28.35;43.84
61436;BME280;47304;47.456;19.160;2023-07-29T09:16:30;99817.83;;;28.32;43.72
61436;BME280;47304;47.456;19.160;2023-07-29T09:19:01;99810.81;;;28.36;44.28
61436;BME280;47304;47.456;19.160;2023-07-29T09:21:28;99813.77;;;28.46;44.47
61436;BME280;47304;47.456;19.160;2023-07-29T09:23:55;99812.75;;;28.54;43.52
61436;BME280;47304;47.456;19.160;2023-07-29T09:26:25;99807.48;;;28.54;43.72
61436;BME280;47304;47.456;19.160;2023-07-29T09:28:54;99807.39;;;28.60;43.62
61436;BME280;47304;47.456;19.160;2023-07-29T09:31:25;99805.28;;;28.68;43.36
61436;BME280;47304;47.456;19.160;2023-07-29T09:34:00;99801.28;;;28.77;42.97
61436;BME280;47304;47.456;19.160;2023-07-29T09:36:27;99799.39;;;28.84;43.35
61436;BME280;47304;47.456;19.160;2023-07-29T09:38:55;99796.39;;;28.96;43.72
61436;BME280;47304;47.456;19.160;2023-07-29T09:41:23;99797.05;;;29.09;43.66
61436;BME280;47304;47.456;19.160;2023-07-29T09:44:04;99798.64;;;29.18;42.68
61436;BME280;47304;47.456;19.160;2023-07-29T09:46:37;99796.91;;;29.26;42.51
61436;BME280;47304;47.456;19.160;2023-07-29T09:49:07;99795.59;;;29.26;42.37
61436;BME280;47304;47.456;19.160;2023-07-29T09:51:38;99795.02;;;29.22;41.75
61436;BME280;47304;47.456;19.160;2023-07-29T09:54:04;99789.15;;;29.23;41.65
61436;BME280;47304;47.456;19.160;2023-07-29T09:56:31;99785.46;;;29.31;42.29
61436;BME280;47304;47.456;19.160;2023-07-29T09:58:57;99782.73;;;29.39;41.25
61436;BME280;47304;47.456;19.160;2023-07-29T10:01:24;99782.86;;;29.46;41.07
61436;BME280;47304;47.456;19.160;2023-07-29T10:03:51;99780.58;;;29.55;41.12
61436;BME280;47304;47.456;19.160;2023-07-29T10:06:19;99782.04;;;29.67;40.46
61436;BME280;47304;47.456;19.160;2023-07-29T10:08:47;99784.23;;;29.79;39.28
61436;BME280;47304;47.456;19.160;2023-07-29T10:11:15;99780.45;;;29.85;39.30
61436;BME280;47304;47.456;19.160;2023-07-29T10:13:42;99780.55;;;29.84;38.95
61436;BME280;47304;47.456;19.160;2023-07-29T10:16:22;99779.07;;;29.78;38.79
61436;BME280;47304;47.456;19.160;2023-07-29T10:18:50;99781.70;;;29.71;38.73
61436;BME280;47304;47.456;19.160;2023-07-29T10:21:21;99777.67;;;29.66;38.60
61436;BME280;47304;47.456;19.160;2023-07-29T10:23:53;99780.73;;;29.62;38.86
61436;BME280;47304;47.456;19.160;2023-07-29T10:26:21;99778.15;;;29.61;38.49
61436;BME280;47304;47.456;19.160;2023-07-29T10:28:52;99776.92;;;29.60;38.50
61436;BME280;47304;47.456;19.160;2023-07-29T10:31:18;99774.14;;;29.71;38.82
61436;BME280;47304;47.456;19.160;2023-07-29T10:33:47;99776.41;;;29.86;38.80
61436;BME280;47304;47.456;19.160;2023-07-29T10:36:14;99774.96;;;30.00;38.65
61436;BME280;47304;47.456;19.160;2023-07-29T10:38:41;99777.43;;;30.09;38.05
61436;BME280;47304;47.456;19.160;2023-07-29T10:41:07;99773.02;;;30.10;38.21
61436;BME280;47304;47.456;19.160;2023-07-29T10:43:36;99774.64;;;30.16;38.31
61436;BME280;47304;47.456;19.160;2023-07-29T10:46:22;99774.90;;;30.21;38.03
61436;BME280;47304;47.456;19.160;2023-07-29T10:48:56;99768.95;;;30.23;37.97
61436;BME280;47304;47.456;19.160;2023-07-29T10:51:30;99763.34;;;30.26;37.98
61436;BME280;47304;47.456;19.160;2023-07-29T10:53:59;99763.61;;;30.24;37.40
61436;BME280;47304;47.456;19.160;2023-07-29T10:56:39;99760.84;;;30.18;37.69
61436;BME280;47304;47.456;19.160;2023-07-29T11:01:41;99762.38;;;30.41;37.97
61436;BME280;47304;47.456;19.160;2023-07-29T11:15:07;99765.27;;;31.14;36.43
61436;BME280;47304;47.456;19.160;2023-07-29T11:17:46;99768.29;;;31.13;36.41
61436;BME280;47304;47.456;19.160;2023-07-29T11:20:14;99762.23;;;31.14;36.52
61436;BME280;47304;47.456;19.160;2023-07-29T11:22:41;99762.77;;;31.25;36.31
61436;BME280;47304;47.456;19.160;2023-07-29T11:25:10;99762.13;;;31.52;35.96
61436;BME280;47304;47.456;19.160;2023-07-29T11:27:37;99765.19;;;31.77;35.48
61436;BME280;47304;47.456;19.160;2023-07-29T11:30:06;99767.96;;;31.85;35.35
61436;BME280;47304;47.456;19.160;2023-07-29T11:32:33;99764.54;;;31.80;34.80
61436;BME280;47304;47.456;19.160;2023-07-29T11:37:30;99762.29;;;31.63;34.79
61436;BME280;47304;47.456;19.160;2023-07-29T11:39:57;99756.44;;;31.53;34.64
61436;BME280;47304;47.456;19.160;2023-07-29T11:42:23;99758.36;;;31.52;35.33
61436;BME280;47304;47.456;19.160;2023-07-29T11:44:50;99761.20;;;31.62;35.08
61436;BME280;47304;47.456;19.160;2023-07-29T11:47:17;99761.18;;;31.70;35.81
61436;BME280;47304;47.456;19.160;2023-07-29T11:49:43;99756.84;;;31.80;35.85
61436;BME280;47304;47.456;19.160;2023-07-29T11:52:10;99754.46;;;31.94;35.66
61436;BME280;47304;47.456;19.160;2023-07-29T11:54:38;99751.75;;;32.08;35.48
61436;BME280;47304;47.456;19.160;2023-07-29T11:57:09;99748.02;;;32.20;34.94
61436;BME280;47304;47.456;19.160;2023-07-29T11:59:37;99741.90;;;32.25;35.31
61436;BME280;47304;47.456;19.160;2023-07-29T12:02:09;99735.55;;;32.29;35.38
61436;BME280;47304;47.456;19.160;2023-07-29T12:04:38;99734.91;;;32.28;34.74
61436;BME280;47304;47.456;19.160;2023-07-29T12:07:05;99742.08;;;32.12;34.21
61436;BME280;47304;47.456;19.160;2023-07-29T12:09:34;99739.76;;;32.01;34.25
61436;BME280;47304;47.456;19.160;2023-07-29T12:12:04;99734.75;;;31.91;34.46
61436;BME280;47304;47.456;19.160;2023-07-29T12:14:32;99738.55;;;31.81;34.33
61436;BME280;47304;47.456;19.160;2023-07-29T12:17:00;99741.45;;;31.70;34.46
61436;BME280;47304;47.456;19.160;2023-07-29T12:19:35;99737.35;;;31.58;34.33
61436;BME280;47304;47.456;19.160;2023-07-29T12:22:03;99740.04;;;31.41;34.28
61436;BME280;47304;47.456;19.160;2023-07-29T12:24:31;99735.70;;;31.26;34.55
61436;BME280;47304;47.456;19.160;2023-07-29T12:26:59;99735.39;;;31.09;34.94
61436;BME280;47304;47.456;19.160;2023-07-29T12:29:26;99734.02;;;31.03;35.50
61436;BME280;47304;47.456;19.160;2023-07-29T12:32:01;99730.89;;;31.01;35.14
61436;BME280;47304;47.456;19.160;2023-07-29T12:34:29;99729.77;;;31.05;35.20
61436;BME280;47304;47.456;19.160;2023-07-29T12:36:58;99728.88;;;31.13;35.37
61436;BME280;47304;47.456;19.160;2023-07-29T12:39:43;99731.56;;;31.19;35.55
61436;BME280;47304;47.456;19.160;2023-07-29T12:42:09;99728.67;;;31.18;35.13
61436;BME280;47304;47.456;19.160;2023-07-29T12:44:37;99719.90;;;31.08;35.21
61436;BME280;47304;47.456;19.160;2023-07-29T12:47:05;99719.59;;;31.00;35.20
61436;BME280;47304;47.456;19.160;2023-07-29T12:49:32;99717.84;;;30.93;35.29
61436;BME280;47304;47.456;19.160;2023-07-29T12:51:59;99722.38;;;30.93;35.42
61436;BME280;47304;47.456;19.160;2023-07-29T12:54:26;99720.55;;;30.95;35.74
61436;BME280;47304;47.456;19.160;2023-07-29T12:56:53;99714.00;;;31.00;35.75
61436;BME280;47304;47.456;19.160;2023-07-29T12:59:19;99713.09;;;31.03;35.49
61436;BME280;47304;47.456;19.160;2023-07-29T13:01:46;99711.31;;;31.00;35.40
61436;BME280;47304;47.456;19.160;2023-07-29T13:04:13;99709.23;;;30.99;36.12
61436;BME280;47304;47.456;19.160;2023-07-29T13:06:39;99704.89;;;31.08;35.98
61436;BME280;47304;47.456;19.160;2023-07-29T13:09:06;99702.35;;;31.18;35.39
61436;BME280;47304;47.456;19.160;2023-07-29T13:11:33;99698.52;;;31.23;35.63
61436;BME280;47304;47.456;19.160;2023-07-29T13:14:00;99695.80;;;31.29;35.38
61436;BME280;47304;47.456;19.160;2023-07-29T13:16:27;99695.26;;;31.37;34.95
61436;BME280;47304;47.456;19.160;2023-07-29T13:18:54;99695.84;;;31.43;34.56
61436;BME280;47304;47.456;19.160;2023-07-29T13:21:21;99692.52;;;31.44;33.81
61436;BME280;47304;47.456;19.160;2023-07-29T13:23:47;99694.60;;;31.45;34.78